Time;durP1;ratioP1;P1;durP2;ratioP2;P2;SDS_P1;SDS_P2;PMS_P1;PMS_P2;Temp;Humidity;BMP_temperature;BMP_pressure;BME280_temperature;BME280_humidity;BME280_pressure;Samples;Min_cycle;Max_cycle;Signal;HPM_P1;HPM_P2
2023/06/15 00:02:57;;;;;;;;;;;;;;;13.27;100.00;98920.42;135815;1259;22923;-66
2023/06/15 00:06:00;;;;;;;;;;;;;;;13.29;100.00;98920.06;135795;1277;25457;-66
2023/06/15 00:09:02;;;;;;;;;;;;;;;13.32;100.00;98921.61;135754;1277;25028;-67
2023/06/15 00:12:08;;;;;;;;;;;;;;;13.41;100.00;98919.77;135813;1277;22536;-67
2023/06/15 00:15:11;;;;;;;;;;;;;;;13.33;100.00;98919.96;135822;1257;22512;-67
2023/06/15 00:18:13;;;;;;;;;;;;;;;13.44;100.00;98919.39;135829;1277;22653;-67
2023/06/15 00:21:16;;;;;;;;;;;;;;;13.62;100.00;98921.65;135842;1274;22520;-69
2023/06/15 00:24:18;;;;;;;;;;;;;;;13.53;100.00;98920.84;135790;1277;22517;-68
2023/06/15 00:27:21;;;;;;;;;;;;;;;13.48;100.00;98917.73;135829;1277;22504;-67
2023/06/15 00:30:23;;;;;;;;;;;;;;;13.52;100.00;98919.36;135818;1277;22528;-68
2023/06/15 00:33:26;;;;;;;;;;;;;;;13.58;100.00;98921.35;135824;1277;22496;-68
2023/06/15 00:36:28;;;;;;;;;;;;;;;13.43;100.00;98919.48;135828;1277;22530;-65
2023/06/15 00:39:30;;;;;;;;;;;;;;;13.39;100.00;98920.48;135799;1257;22606;-68
2023/06/15 00:42:33;;;;;;;;;;;;;;;13.32;100.00;98922.66;135807;1277;23717;-67
2023/06/15 00:45:35;;;;;;;;;;;;;;;13.28;100.00;98925.28;135834;1273;22588;-67
2023/06/15 00:48:38;;;;;;;;;;;;;;;13.20;100.00;98925.80;135797;1277;22523;-67
2023/06/15 00:51:41;;;;;;;;;;;;;;;13.15;100.00;98925.95;135878;1277;22530;-67
2023/06/15 00:54:43;;;;;;;;;;;;;;;13.29;100.00;98925.04;135730;1277;22525;-67
2023/06/15 00:57:49;;;;;;;;;;;;;;;13.40;100.00;98924.93;135790;1277;22503;-65
2023/06/15 01:00:51;;;;;;;;;;;;;;;13.30;100.00;98925.11;135771;1277;22499;-65
2023/06/15 01:03:54;;;;;;;;;;;;;;;13.21;100.00;98928.51;135797;1277;22515;-65
2023/06/15 01:06:57;;;;;;;;;;;;;;;13.17;100.00;98926.88;135796;1277;24253;-70
2023/06/15 01:09:59;;;;;;;;;;;;;;;13.08;100.00;98924.88;135802;1259;22505;-67
2023/06/15 01:13:02;;;;;;;;;;;;;;;13.22;100.00;98922.13;135841;1277;22498;-69
2023/06/15 01:16:04;;;;;;;;;;;;;;;13.35;100.00;98921.42;135754;1277;22487;-70
2023/06/15 01:19:09;;;;;;;;;;;;;;;13.16;100.00;98923.81;135758;1277;24363;-70
2023/06/15 01:22:12;;;;;;;;;;;;;;;13.22;100.00;98920.59;135826;1277;22609;-67
2023/06/15 01:25:14;;;;;;;;;;;;;;;13.20;100.00;98918.03;135811;1277;22555;-67
2023/06/15 01:28:17;;;;;;;;;;;;;;;13.24;100.00;98919.52;135809;1277;22515;-69
2023/06/15 01:31:20;;;;;;;;;;;;;;;13.24;100.00;98917.58;135829;1277;22520;-68
2023/06/15 01:34:22;;;;;;;;;;;;;;;13.16;100.00;98919.39;135813;1277;24200;-69
2023/06/15 01:37:25;;;;;;;;;;;;;;;13.10;100.00;98923.13;135786;1277;22519;-69
2023/06/15 01:40:27;;;;;;;;;;;;;;;13.11;100.00;98920.66;135812;1262;24189;-70
2023/06/15 01:43:29;;;;;;;;;;;;;;;13.17;100.00;98919.11;135792;1277;22530;-70
2023/06/15 01:46:32;;;;;;;;;;;;;;;13.35;100.00;98919.32;135819;1277;22614;-68
2023/06/15 01:49:34;;;;;;;;;;;;;;;13.31;100.00;98920.95;135807;1277;22490;-67
2023/06/15 01:52:37;;;;;;;;;;;;;;;13.22;100.00;98921.11;135794;1258;22497;-70
2023/06/15 01:55:39;;;;;;;;;;;;;;;13.35;100.00;98920.05;135749;1277;22531;-67
2023/06/15 01:58:42;;;;;;;;;;;;;;;13.30;100.00;98917.91;135792;1277;25587;-68
2023/06/15 02:01:45;;;;;;;;;;;;;;;13.39;100.00;98914.15;135783;1277;22504;-68
2023/06/15 02:04:47;;;;;;;;;;;;;;;13.47;100.00;98914.77;135785;1277;24267;-72
2023/06/15 02:07:50;;;;;;;;;;;;;;;13.52;100.00;98908.67;135816;1277;22527;-69
2023/06/15 02:10:52;;;;;;;;;;;;;;;13.55;100.00;98904.43;135808;1277;24179;-67
2023/06/15 02:13:54;;;;;;;;;;;;;;;13.43;100.00;98905.94;135788;1277;22516;-66
2023/06/15 02:16:58;;;;;;;;;;;;;;;13.58;100.00;98902.73;135823;1277;22551;-67
2023/06/15 02:20:01;;;;;;;;;;;;;;;13.52;100.00;98905.85;135821;1277;22522;-67
2023/06/15 02:23:07;;;;;;;;;;;;;;;13.61;100.00;98902.54;135822;1277;22496;-70
2023/06/15 02:26:09;;;;;;;;;;;;;;;13.56;100.00;98907.44;135806;1277;22523;-68
2023/06/15 02:29:12;;;;;;;;;;;;;;;13.59;100.00;98904.81;135828;1277;22520;-68
2023/06/15 02:32:14;;;;;;;;;;;;;;;13.61;100.00;98903.04;135832;1277;22504;-64
2023/06/15 02:35:17;;;;;;;;;;;;;;;13.70;100.00;98900.67;135818;1277;22524;-63
2023/06/15 02:38:20;;;;;;;;;;;;;;;13.80;100.00;98899.38;135787;1277;22502;-64
2023/06/15 02:41:22;;;;;;;;;;;;;;;13.76;100.00;98900.21;135795;1277;22495;-68
2023/06/15 02:44:25;;;;;;;;;;;;;;;13.78;100.00;98898.84;135815;1277;22503;-69
2023/06/15 02:47:27;;;;;;;;;;;;;;;13.98;100.00;98896.89;135816;1277;22519;-68
2023/06/15 02:50:29;;;;;;;;;;;;;;;14.08;100.00;98894.17;135800;1277;22511;-68
2023/06/15 02:53:32;;;;;;;;;;;;;;;14.04;100.00;98900.46;135789;1277;22500;-68
2023/06/15 02:56:36;;;;;;;;;;;;;;;14.01;100.00;98899.99;135815;1277;23698;-67
2023/06/15 02:59:40;;;;;;;;;;;;;;;14.08;100.00;98901.75;135800;1277;22510;-67
2023/06/15 03:02:44;;;;;;;;;;;;;;;14.19;100.00;98901.12;135831;1277;22518;-67
2023/06/15 03:05:47;;;;;;;;;;;;;;;14.03;100.00;98905.48;135783;1277;22509;-68
2023/06/15 03:08:49;;;;;;;;;;;;;;;13.89;100.00;98905.41;135815;1277;22623;-67
2023/06/15 03:11:51;;;;;;;;;;;;;;;13.80;100.00;98905.23;135802;1257;22550;-69
2023/06/15 03:14:54;;;;;;;;;;;;;;;13.76;100.00;98905.34;135787;1277;22505;-68
2023/06/15 03:17:57;;;;;;;;;;;;;;;13.72;100.00;98909.83;135785;1277;22504;-67
2023/06/15 03:20:59;;;;;;;;;;;;;;;13.64;100.00;98908.63;135832;1277;22518;-69
2023/06/15 03:24:02;;;;;;;;;;;;;;;13.68;100.00;98909.09;135829;1277;22497;-68
2023/06/15 03:27:04;;;;;;;;;;;;;;;13.69;100.00;98910.20;135814;1277;22609;-67
2023/06/15 03:30:10;;;;;;;;;;;;;;;13.72;100.00;98907.05;135804;1256;22511;-67
2023/06/15 03:33:16;;;;;;;;;;;;;;;13.72;100.00;98908.23;135814;1277;22627;-67
2023/06/15 03:36:19;;;;;;;;;;;;;;;13.89;100.00;98913.33;135765;1277;22507;-67
2023/06/15 03:39:22;;;;;;;;;;;;;;;14.00;100.00;98911.84;135807;1259;22536;-67
2023/06/15 03:42:25;;;;;;;;;;;;;;;14.08;100.00;98910.71;135814;1258;22507;-67
2023/06/15 03:45:27;;;;;;;;;;;;;;;14.35;100.00;98910.64;135822;1277;24243;-68
2023/06/15 03:48:30;;;;;;;;;;;;;;;14.65;100.00;98909.83;135780;1277;22523;-68
2023/06/15 03:51:32;;;;;;;;;;;;;;;14.85;100.00;98917.63;135756;1277;22512;-67
2023/06/15 03:54:35;;;;;;;;;;;;;;;14.77;100.00;98918.08;135822;1277;24181;-68
2023/06/15 03:57:37;;;;;;;;;;;;;;;14.32;100.00;98915.65;135763;1277;22512;-67
2023/06/15 04:00:40;;;;;;;;;;;;;;;14.41;100.00;98916.05;135791;1277;22497;-69
2023/06/15 04:03:42;;;;;;;;;;;;;;;14.53;100.00;98917.77;135781;1258;22523;-70
2023/06/15 04:06:46;;;;;;;;;;;;;;;14.61;100.00;98918.59;135807;1277;22510;-69
2023/06/15 04:09:48;;;;;;;;;;;;;;;14.67;100.00;98918.16;135794;1277;22497;-70
2023/06/15 04:12:50;;;;;;;;;;;;;;;14.67;100.00;98916.34;135807;1277;25221;-68
2023/06/15 04:15:53;;;;;;;;;;;;;;;14.64;100.00;98918.04;135783;1277;22524;-69
2023/06/15 04:18:57;;;;;;;;;;;;;;;14.66;100.00;98919.80;135798;1277;24227;-69
2023/06/15 04:21:59;;;;;;;;;;;;;;;14.63;100.00;98921.44;135792;1277;22512;-70
2023/06/15 04:25:01;;;;;;;;;;;;;;;14.68;100.00;98926.88;135817;1277;22501;-69
2023/06/15 04:28:05;;;;;;;;;;;;;;;14.71;100.00;98925.53;135790;1277;22497;-69
2023/06/15 04:31:08;;;;;;;;;;;;;;;14.76;100.00;98925.71;135799;1259;22504;-70
2023/06/15 04:34:11;;;;;;;;;;;;;;;14.75;100.00;98927.56;135850;1277;22501;-69
2023/06/15 04:37:16;;;;;;;;;;;;;;;14.96;100.00;98927.54;135788;1259;22516;-66
2023/06/15 04:40:20;;;;;;;;;;;;;;;14.94;100.00;98931.23;135796;1277;22639;-69
2023/06/15 04:43:23;;;;;;;;;;;;;;;14.98;100.00;98930.92;135835;1277;24349;-68
2023/06/15 04:46:25;;;;;;;;;;;;;;;14.99;100.00;98931.34;135808;1277;25287;-69
2023/06/15 04:49:28;;;;;;;;;;;;;;;14.97;100.00;98934.46;135746;1277;22517;-68
2023/06/15 04:52:30;;;;;;;;;;;;;;;15.09;100.00;98931.31;135747;1277;24362;-68
2023/06/15 04:55:32;;;;;;;;;;;;;;;15.18;100.00;98930.01;135792;1277;22521;-70
2023/06/15 04:58:35;;;;;;;;;;;;;;;15.21;100.00;98929.80;135787;1277;22512;-70
2023/06/15 05:01:37;;;;;;;;;;;;;;;15.42;100.00;98931.70;135774;1259;22492;-69
2023/06/15 05:04:40;;;;;;;;;;;;;;;15.51;100.00;98934.14;135815;1277;25313;-69
2023/06/15 05:07:42;;;;;;;;;;;;;;;15.66;100.00;98930.46;135782;1263;23503;-70
2023/06/15 05:10:45;;;;;;;;;;;;;;;15.89;100.00;98932.42;135821;1277;22507;-69
2023/06/15 05:13:47;;;;;;;;;;;;;;;16.13;100.00;98933.08;135788;1257;22510;-68
2023/06/15 05:16:50;;;;;;;;;;;;;;;16.41;100.00;98936.80;131680;1278;5469934;-68
2023/06/15 05:19:54;;;;;;;;;;;;;;;16.47;100.00;98940.52;135837;1259;22481;-68
2023/06/15 05:22:57;;;;;;;;;;;;;;;16.54;100.00;98940.08;135807;1277;23874;-68
2023/06/15 05:25:59;;;;;;;;;;;;;;;16.59;100.00;98942.50;135812;1277;22686;-70
2023/06/15 05:29:02;;;;;;;;;;;;;;;16.33;100.00;98946.77;135756;1277;22509;-70
2023/06/15 05:32:04;;;;;;;;;;;;;;;16.22;100.00;98951.92;135824;1277;22516;-69
2023/06/15 05:35:07;;;;;;;;;;;;;;;16.17;100.00;98953.25;135806;1277;22559;-68
2023/06/15 05:38:09;;;;;;;;;;;;;;;16.13;100.00;98957.27;135802;1277;25449;-68
2023/06/15 05:41:12;;;;;;;;;;;;;;;16.25;100.00;98958.41;135683;1277;22502;-69
2023/06/15 05:44:14;;;;;;;;;;;;;;;16.10;100.00;98960.52;135803;1277;22509;-68
2023/06/15 05:47:17;;;;;;;;;;;;;;;16.18;100.00;98964.26;135806;1277;23754;-68
2023/06/15 05:50:20;;;;;;;;;;;;;;;16.25;100.00;98965.42;135741;1259;22505;-67
2023/06/15 05:53:22;;;;;;;;;;;;;;;16.42;100.00;98966.91;135798;1277;22644;-68
2023/06/15 05:56:26;;;;;;;;;;;;;;;16.82;100.00;98964.11;135815;1260;22510;-69
2023/06/15 05:59:28;;;;;;;;;;;;;;;17.16;100.00;98963.49;135824;1277;22515;-69
2023/06/15 06:02:31;;;;;;;;;;;;;;;17.16;100.00;98964.59;135843;1277;22512;-68
2023/06/15 06:05:33;;;;;;;;;;;;;;;17.19;100.00;98967.50;135812;1277;22501;-70
2023/06/15 06:08:35;;;;;;;;;;;;;;;16.86;100.00;98975.42;135806;1277;24647;-68
2023/06/15 06:11:38;;;;;;;;;;;;;;;16.80;100.00;98977.83;135810;1277;26464;-68
2023/06/15 06:14:40;;;;;;;;;;;;;;;16.80;100.00;98977.63;135802;1277;22535;-71
2023/06/15 06:17:43;;;;;;;;;;;;;;;16.88;100.00;98974.84;135769;1277;22507;-70
2023/06/15 06:20:46;;;;;;;;;;;;;;;17.12;100.00;98973.74;135791;1277;25253;-69
2023/06/15 06:23:48;;;;;;;;;;;;;;;17.13;100.00;98978.24;135790;1277;24170;-70
2023/06/15 06:26:51;;;;;;;;;;;;;;;17.61;100.00;98979.29;135805;1277;22504;-69
2023/06/15 06:29:53;;;;;;;;;;;;;;;18.37;100.00;98971.49;135791;1277;22522;-70
2023/06/15 06:32:56;;;;;;;;;;;;;;;18.90;100.00;98977.07;135830;1277;22526;-69
2023/06/15 06:35:58;;;;;;;;;;;;;;;18.85;100.00;98979.31;135796;1277;22504;-70
2023/06/15 06:39:01;;;;;;;;;;;;;;;18.46;100.00;98982.02;135785;1277;22512;-69
2023/06/15 06:42:04;;;;;;;;;;;;;;;18.24;100.00;98986.63;135838;1277;22507;-72
2023/06/15 06:45:06;;;;;;;;;;;;;;;18.11;100.00;98988.69;135834;1277;22510;-70
2023/06/15 06:48:09;;;;;;;;;;;;;;;17.98;100.00;98989.78;135733;1275;22504;-69
2023/06/15 06:51:13;;;;;;;;;;;;;;;18.06;100.00;98993.38;135797;1277;22508;-71
2023/06/15 06:54:15;;;;;;;;;;;;;;;17.96;100.00;98993.16;135806;1259;22530;-68
2023/06/15 06:57:20;;;;;;;;;;;;;;;17.96;100.00;98994.39;135791;1277;22507;-68
2023/06/15 07:00:23;;;;;;;;;;;;;;;17.92;100.00;98994.23;135818;1277;22662;-69
2023/06/15 07:03:25;;;;;;;;;;;;;;;17.86;100.00;98992.25;135801;1278;22530;-68
2023/06/15 07:06:28;;;;;;;;;;;;;;;18.01;100.00;98992.52;135816;1277;22520;-65
2023/06/15 07:09:30;;;;;;;;;;;;;;;18.26;100.00;98992.50;135816;1277;25470;-70
2023/06/15 07:12:33;;;;;;;;;;;;;;;18.51;100.00;98988.04;135809;1277;25259;-69
2023/06/15 07:15:35;;;;;;;;;;;;;;;19.08;100.00;98987.11;135789;1259;22507;-68
2023/06/15 07:18:37;;;;;;;;;;;;;;;19.30;100.00;98989.80;135803;1277;22530;-71
2023/06/15 07:21:40;;;;;;;;;;;;;;;19.02;100.00;98991.91;135805;1277;22509;-71
2023/06/15 07:24:42;;;;;;;;;;;;;;;18.71;100.00;98997.02;135808;1277;22532;-70
2023/06/15 07:27:45;;;;;;;;;;;;;;;18.34;100.00;98996.19;135813;1277;22523;-70
2023/06/15 07:30:49;;;;;;;;;;;;;;;18.16;100.00;98988.73;135789;1277;22490;-70
2023/06/15 07:33:53;;;;;;;;;;;;;;;18.16;100.00;98992.80;135800;1277;22523;-72
2023/06/15 07:36:56;;;;;;;;;;;;;;;18.08;100.00;98993.33;135827;1259;22493;-70
2023/06/15 07:39:58;;;;;;;;;;;;;;;18.18;100.00;98993.13;135804;1277;22518;-70
2023/06/15 07:43:01;;;;;;;;;;;;;;;18.32;100.00;98993.15;135813;1277;22526;-70
2023/06/15 07:46:03;;;;;;;;;;;;;;;18.50;100.00;98996.45;135830;1277;22515;-72
2023/06/15 07:49:07;;;;;;;;;;;;;;;18.76;100.00;98990.61;135735;1277;22512;-70
2023/06/15 07:52:09;;;;;;;;;;;;;;;19.32;100.00;98987.54;135814;1259;22506;-70
2023/06/15 07:55:12;;;;;;;;;;;;;;;20.29;100.00;98992.09;135852;1277;22513;-72
2023/06/15 07:58:14;;;;;;;;;;;;;;;21.05;100.00;98988.60;135800;1277;25453;-69
2023/06/15 08:01:16;;;;;;;;;;;;;;;21.13;100.00;98985.11;135813;1277;22501;-69
2023/06/15 08:04:19;;;;;;;;;;;;;;;20.42;100.00;98988.29;135811;1277;22522;-71
2023/06/15 08:07:21;;;;;;;;;;;;;;;20.25;100.00;98983.60;135804;1277;22528;-70
2023/06/15 08:10:24;;;;;;;;;;;;;;;20.90;100.00;98984.91;135785;1277;22614;-69
2023/06/15 08:13:26;;;;;;;;;;;;;;;21.55;100.00;98980.75;135762;1277;22508;-70
2023/06/15 08:16:29;;;;;;;;;;;;;;;22.30;100.00;98978.08;135822;1277;25876;-72
2023/06/15 08:19:31;;;;;;;;;;;;;;;22.92;100.00;98975.97;135791;1277;22530;-70
2023/06/15 08:22:34;;;;;;;;;;;;;;;23.29;100.00;98979.30;135787;1277;25321;-67
2023/06/15 08:25:36;;;;;;;;;;;;;;;22.93;100.00;98978.27;135796;1277;22500;-67
2023/06/15 08:28:38;;;;;;;;;;;;;;;22.91;100.00;98979.52;135806;1277;22530;-70
2023/06/15 08:31:41;;;;;;;;;;;;;;;22.23;100.00;98979.00;135788;1277;22531;-72
2023/06/15 08:34:43;;;;;;;;;;;;;;;22.27;100.00;98985.73;135818;1277;22498;-70
2023/06/15 08:37:46;;;;;;;;;;;;;;;22.89;100.00;98981.20;135789;1277;22542;-72
2023/06/15 08:40:48;;;;;;;;;;;;;;;23.43;100.00;98978.30;135801;1277;22528;-70
2023/06/15 08:43:50;;;;;;;;;;;;;;;23.74;100.00;98977.96;135799;1277;22511;-70
2023/06/15 08:46:56;;;;;;;;;;;;;;;24.12;100.00;98973.67;135739;1277;22509;-71
2023/06/15 08:49:58;;;;;;;;;;;;;;;24.55;100.00;98979.63;135773;1277;23288;-71
2023/06/15 08:53:01;;;;;;;;;;;;;;;24.44;100.00;98980.58;135797;1277;22619;-69
2023/06/15 08:56:03;;;;;;;;;;;;;;;24.03;100.00;98978.12;135803;1277;22523;-71
2023/06/15 08:59:06;;;;;;;;;;;;;;;23.68;100.00;98979.20;135803;1277;22502;-70
2023/06/15 09:02:08;;;;;;;;;;;;;;;23.92;100.00;98979.70;135779;1277;22514;-71
2023/06/15 09:05:11;;;;;;;;;;;;;;;24.46;100.00;98979.02;135832;1278;22556;-70
2023/06/15 09:08:14;;;;;;;;;;;;;;;24.30;100.00;98980.30;135814;1277;22614;-71
2023/06/15 09:11:16;;;;;;;;;;;;;;;23.70;100.00;98980.39;135785;1277;22609;-70
2023/06/15 09:14:19;;;;;;;;;;;;;;;23.69;100.00;98981.02;135825;1277;22526;-70
2023/06/15 09:17:21;;;;;;;;;;;;;;;23.77;100.00;98983.02;135822;1260;24197;-71
2023/06/15 09:20:24;;;;;;;;;;;;;;;23.53;100.00;98983.70;135808;1277;22516;-71
2023/06/15 09:23:27;;;;;;;;;;;;;;;23.37;100.00;98983.40;135809;1267;22523;-72
2023/06/15 09:26:29;;;;;;;;;;;;;;;23.25;100.00;98976.67;135791;1278;22578;-72
2023/06/15 09:29:32;;;;;;;;;;;;;;;22.89;100.00;98982.04;135788;1277;22501;-67
2023/06/15 09:32:34;;;;;;;;;;;;;;;22.84;100.00;98978.73;135809;1278;22486;-68
2023/06/15 09:35:36;;;;;;;;;;;;;;;22.42;100.00;98988.70;135801;1277;22523;-69
2023/06/15 09:38:40;;;;;;;;;;;;;;;21.53;100.00;98996.61;135814;1278;22502;-71
2023/06/15 09:41:42;;;;;;;;;;;;;;;20.72;100.00;99000.72;135790;1277;22519;-72
2023/06/15 09:44:45;;;;;;;;;;;;;;;20.21;100.00;99001.14;135803;1277;22642;-71
2023/06/15 09:47:47;;;;;;;;;;;;;;;19.91;100.00;98999.34;135720;1277;22505;-70
2023/06/15 09:50:50;;;;;;;;;;;;;;;19.78;100.00;98992.20;135801;1278;23949;-69
2023/06/15 09:53:54;;;;;;;;;;;;;;;19.90;100.00;98990.48;135778;1277;22503;-69
2023/06/15 09:56:57;;;;;;;;;;;;;;;19.98;100.00;98994.39;135791;1278;22689;-69
2023/06/15 10:00:01;;;;;;;;;;;;;;;20.06;100.00;98993.05;135783;1277;22520;-69
2023/06/15 10:03:05;;;;;;;;;;;;;;;20.60;100.00;98984.33;135775;1278;22516;-70
2023/06/15 10:06:09;;;;;;;;;;;;;;;21.75;100.00;98980.82;135798;1277;22512;-70
2023/06/15 10:09:11;;;;;;;;;;;;;;;22.51;100.00;98978.70;135778;1278;22508;-71
2023/06/15 10:12:14;;;;;;;;;;;;;;;22.89;100.00;98978.86;135801;1277;22498;-69
2023/06/15 10:15:18;;;;;;;;;;;;;;;23.21;100.00;98976.16;135839;1278;22504;-69
2023/06/15 10:18:22;;;;;;;;;;;;;;;23.48;100.00;98976.10;135777;1258;22530;-70
2023/06/15 10:21:24;;;;;;;;;;;;;;;23.33;100.00;98977.04;135799;1277;22513;-70
2023/06/15 10:24:27;;;;;;;;;;;;;;;22.95;100.00;98974.67;135799;1278;22510;-71
2023/06/15 10:27:29;;;;;;;;;;;;;;;22.94;100.00;98974.49;135783;1278;22571;-70
2023/06/15 10:30:31;;;;;;;;;;;;;;;22.99;100.00;98972.69;135820;1267;22508;-68
2023/06/15 10:33:34;;;;;;;;;;;;;;;23.18;100.00;98970.70;135791;1278;22546;-68
2023/06/15 10:36:37;;;;;;;;;;;;;;;23.54;100.00;98971.83;135791;1267;22511;-70
2023/06/15 10:39:40;;;;;;;;;;;;;;;23.95;100.00;98974.05;135807;1277;24297;-71
2023/06/15 10:42:42;;;;;;;;;;;;;;;24.36;100.00;98972.52;135754;1267;22526;-70
2023/06/15 10:45:45;;;;;;;;;;;;;;;24.64;100.00;98968.35;135790;1278;22616;-71
2023/06/15 10:48:48;;;;;;;;;;;;;;;25.23;100.00;98969.23;135712;1277;22542;-70
2023/06/15 10:51:50;;;;;;;;;;;;;;;25.47;100.00;98962.95;135778;1278;22629;-70
2023/06/15 10:54:53;;;;;;;;;;;;;;;25.96;100.00;98965.98;135793;1278;22541;-71
2023/06/15 10:57:56;;;;;;;;;;;;;;;26.23;100.00;98961.77;135805;1278;25319;-70
2023/06/15 11:00:58;;;;;;;;;;;;;;;26.44;100.00;98964.39;135771;1277;22522;-71
2023/06/15 11:04:01;;;;;;;;;;;;;;;25.89;100.00;98963.25;135800;1278;23395;-72
2023/06/15 11:07:03;;;;;;;;;;;;;;;25.01;100.00;98967.02;135761;1277;22496;-71
2023/06/15 11:10:06;;;;;;;;;;;;;;;25.16;100.00;98962.77;135787;1278;22507;-73
2023/06/15 11:13:08;;;;;;;;;;;;;;;25.02;100.00;98964.39;135804;1278;25370;-71
2023/06/15 11:16:11;;;;;;;;;;;;;;;25.28;100.00;98956.54;135788;1278;22498;-70
2023/06/15 11:19:13;;;;;;;;;;;;;;;25.88;100.00;98952.89;135764;1260;22506;-71
2023/06/15 11:22:17;;;;;;;;;;;;;;;26.00;100.00;98951.88;135796;1278;24269;-70
2023/06/15 11:25:19;;;;;;;;;;;;;;;26.38;100.00;98949.38;135800;1278;22495;-71
2023/06/15 11:28:22;;;;;;;;;;;;;;;26.70;100.00;98944.77;135812;1267;22521;-71
2023/06/15 11:31:24;;;;;;;;;;;;;;;27.42;100.00;98938.91;135780;1260;22520;-72
2023/06/15 11:34:26;;;;;;;;;;;;;;;27.55;97.77;98940.55;135815;1278;24190;-70
2023/06/15 11:37:29;;;;;;;;;;;;;;;26.51;86.78;98943.08;135741;1278;22541;-68
2023/06/15 11:40:32;;;;;;;;;;;;;;;25.19;88.87;98949.70;135796;1260;22508;-74
2023/06/15 11:43:34;;;;;;;;;;;;;;;24.85;90.81;98948.95;135789;1278;22511;-74
2023/06/15 11:46:36;;;;;;;;;;;;;;;24.82;93.16;98945.93;135781;1278;22513;-74
2023/06/15 11:49:40;;;;;;;;;;;;;;;24.79;91.24;98951.44;135733;1278;22521;-71
2023/06/15 11:52:42;;;;;;;;;;;;;;;24.46;92.53;98952.81;135811;1260;22505;-72
2023/06/15 11:55:45;;;;;;;;;;;;;;;24.05;90.00;98955.89;135766;1277;22539;-73
2023/06/15 11:58:47;;;;;;;;;;;;;;;23.68;89.74;98949.14;135784;1278;22508;-72
2023/06/15 12:01:50;;;;;;;;;;;;;;;23.49;89.75;98943.88;135787;1267;22616;-71
2023/06/15 12:04:53;;;;;;;;;;;;;;;23.47;88.35;98942.15;135803;1278;22507;-73
2023/06/15 12:07:55;;;;;;;;;;;;;;;23.24;89.79;98943.42;135771;1278;25380;-71
2023/06/15 12:10:58;;;;;;;;;;;;;;;23.30;92.81;98939.94;135795;1277;25215;-70
2023/06/15 12:14:01;;;;;;;;;;;;;;;23.79;92.11;98940.28;135804;1277;22519;-71
2023/06/15 12:17:03;;;;;;;;;;;;;;;24.46;90.57;98932.98;135786;1278;22552;-70
2023/06/15 12:20:09;;;;;;;;;;;;;;;25.20;90.48;98934.02;135764;1277;24661;-70
2023/06/15 12:23:11;;;;;;;;;;;;;;;26.23;88.35;98922.92;135792;1277;22512;-70
2023/06/15 12:26:14;;;;;;;;;;;;;;;26.97;87.06;98921.54;135766;1277;24364;-71
2023/06/15 12:29:16;;;;;;;;;;;;;;;27.18;84.78;98918.43;135804;1277;22534;-70
2023/06/15 12:32:19;;;;;;;;;;;;;;;27.03;82.85;98916.48;135801;1278;22509;-71
2023/06/15 12:35:21;;;;;;;;;;;;;;;26.99;80.26;98913.48;135817;1277;25453;-67
2023/06/15 12:38:24;;;;;;;;;;;;;;;27.33;81.31;98911.61;135752;1277;24352;-67
2023/06/15 12:41:26;;;;;;;;;;;;;;;27.88;79.02;98910.36;135804;1278;22511;-74
2023/06/15 12:44:31;;;;;;;;;;;;;;;28.09;78.23;98908.98;135781;1277;25469;-70
2023/06/15 12:47:34;;;;;;;;;;;;;;;27.78;77.04;98900.43;135765;1274;22532;-71
2023/06/15 12:50:36;;;;;;;;;;;;;;;27.82;77.31;98897.71;135725;1278;22500;-74
2023/06/15 12:53:39;;;;;;;;;;;;;;;27.81;68.62;98894.52;135793;1277;23714;-71
2023/06/15 12:56:41;;;;;;;;;;;;;;;27.41;67.22;98894.20;135772;1277;24368;-71
2023/06/15 12:59:44;;;;;;;;;;;;;;;27.64;69.44;98887.16;135747;1277;22546;-70
2023/06/15 13:02:46;;;;;;;;;;;;;;;27.87;65.94;98882.70;135830;1261;22515;-72
2023/06/15 13:05:49;;;;;;;;;;;;;;;27.86;68.89;98877.98;135814;1277;22541;-72
2023/06/15 13:08:51;;;;;;;;;;;;;;;27.89;67.47;98878.27;135797;1277;22534;-72
2023/06/15 13:11:53;;;;;;;;;;;;;;;28.08;69.66;98872.39;135812;1270;22616;-71
2023/06/15 13:14:57;;;;;;;;;;;;;;;28.19;63.48;98872.19;135754;1278;22504;-70
2023/06/15 13:17:59;;;;;;;;;;;;;;;27.74;62.17;98870.03;135785;1277;22561;-69
2023/06/15 13:21:02;;;;;;;;;;;;;;;27.22;61.95;98874.52;135778;1277;22500;-71
2023/06/15 13:24:04;;;;;;;;;;;;;;;27.21;60.53;98871.70;135823;1277;22494;-70
2023/06/15 13:27:07;;;;;;;;;;;;;;;27.41;60.80;98871.46;135772;1277;22605;-71
2023/06/15 13:30:09;;;;;;;;;;;;;;;27.94;61.96;98874.60;135766;1277;22507;-71
2023/06/15 13:33:12;;;;;;;;;;;;;;;27.71;60.38;98872.80;135786;1277;22512;-70
2023/06/15 13:36:15;;;;;;;;;;;;;;;27.05;61.72;98874.42;135783;1277;22535;-71
2023/06/15 13:39:17;;;;;;;;;;;;;;;26.44;61.73;98875.88;135818;1261;22511;-67
2023/06/15 13:42:19;;;;;;;;;;;;;;;25.69;63.16;98878.33;135813;1277;22612;-67
2023/06/15 13:45:22;;;;;;;;;;;;;;;24.92;64.27;98877.80;135783;1277;22486;-69
2023/06/15 13:48:25;;;;;;;;;;;;;;;24.44;64.99;98879.42;135773;1277;22613;-70
2023/06/15 13:51:28;;;;;;;;;;;;;;;24.29;66.61;98885.27;135717;1277;22535;-71
2023/06/15 13:54:30;;;;;;;;;;;;;;;24.17;66.83;98884.48;135772;1277;22515;-69
2023/06/15 13:57:34;;;;;;;;;;;;;;;24.20;68.10;98879.20;135776;1277;22602;-72
2023/06/15 14:00:37;;;;;;;;;;;;;;;24.29;67.15;98874.72;135783;1277;22512;-72
2023/06/15 14:03:39;;;;;;;;;;;;;;;24.06;66.05;98874.48;135747;1277;22601;-72
2023/06/15 14:06:42;;;;;;;;;;;;;;;23.92;65.06;98873.73;135749;1277;22506;-70
2023/06/15 14:09:45;;;;;;;;;;;;;;;24.31;64.72;98875.55;135782;1277;22538;-70
2023/06/15 14:12:47;;;;;;;;;;;;;;;24.33;64.07;98872.15;135807;1277;22515;-72
2023/06/15 14:15:50;;;;;;;;;;;;;;;24.04;64.77;98868.90;135801;1277;22520;-71
2023/06/15 14:18:52;;;;;;;;;;;;;;;23.85;64.90;98869.25;135797;1260;22679;-71
2023/06/15 14:21:55;;;;;;;;;;;;;;;23.76;65.72;98868.49;135798;1260;22650;-71
2023/06/15 14:24:57;;;;;;;;;;;;;;;23.69;65.65;98864.66;135792;1255;22525;-74
2023/06/15 14:28:00;;;;;;;;;;;;;;;23.58;66.73;98862.03;135826;1277;22519;-70
2023/06/15 14:31:03;;;;;;;;;;;;;;;23.62;68.06;98863.47;135781;1277;25265;-71
2023/06/15 14:34:05;;;;;;;;;;;;;;;23.64;66.71;98862.86;135791;1277;22527;-70
2023/06/15 14:37:07;;;;;;;;;;;;;;;23.54;67.04;98858.60;135795;1277;22514;-73
2023/06/15 14:40:10;;;;;;;;;;;;;;;23.35;66.89;98854.09;135777;1277;25370;-68
2023/06/15 14:43:12;;;;;;;;;;;;;;;23.26;66.66;98854.77;135774;1277;22503;-67
2023/06/15 14:46:15;;;;;;;;;;;;;;;23.36;68.15;98854.55;135786;1277;22534;-70
2023/06/15 14:49:17;;;;;;;;;;;;;;;23.41;69.26;98851.84;135736;1277;22558;-71
2023/06/15 14:52:20;;;;;;;;;;;;;;;23.46;69.88;98854.42;135713;1277;22952;-69
2023/06/15 14:55:22;;;;;;;;;;;;;;;23.68;70.34;98851.02;135800;1277;22511;-70
2023/06/15 14:58:25;;;;;;;;;;;;;;;23.97;68.61;98845.50;135801;1277;22532;-70
2023/06/15 15:01:27;;;;;;;;;;;;;;;24.54;68.13;98844.64;135785;1277;22512;-73
2023/06/15 15:04:29;;;;;;;;;;;;;;;25.91;64.79;98833.44;135783;1277;22525;-70
2023/06/15 15:07:33;;;;;;;;;;;;;;;27.68;62.55;98827.77;135772;1277;22674;-71
2023/06/15 15:10:35;;;;;;;;;;;;;;;27.69;60.68;98826.49;135822;1277;22515;-71
2023/06/15 15:13:38;;;;;;;;;;;;;;;26.71;62.71;98826.91;135824;1277;22500;-70
2023/06/15 15:16:40;;;;;;;;;;;;;;;26.33;63.89;98824.17;135801;1277;22520;-71
2023/06/15 15:19:42;;;;;;;;;;;;;;;27.29;63.65;98822.55;135798;1277;22534;-70
2023/06/15 15:22:45;;;;;;;;;;;;;;;29.24;58.20;98818.88;135773;1277;22501;-71
2023/06/15 15:25:47;;;;;;;;;;;;;;;28.81;57.42;98818.19;135795;1277;22617;-70
2023/06/15 15:28:50;;;;;;;;;;;;;;;29.68;55.92;98813.38;135784;1277;22539;-71